Time;durP1;ratioP1;P1;durP2;ratioP2;P2;SDS_P1;SDS_P2;PMS_P1;PMS_P2;Temp;Humidity;BMP_temperature;BMP_pressure;BME280_temperature;BME280_humidity;BME280_pressure;Samples;Min_cycle;Max_cycle;Signal;HPM_P1;HPM_P2
2021/06/02 00:01:58;;;;;;;12.40;2.33;;;;;;;11.82;100.00;99771.47;4806786;29;20053;-45
2021/06/02 00:05:02;;;;;;;5.15;1.95;;;;;;;11.83;100.00;99767.41;4795601;29;20713;-45
2021/06/02 00:08:10;;;;;;;7.43;1.50;;;;;;;11.78;100.00;99770.88;4806650;29;20412;-45
2021/06/02 00:11:15;;;;;;;6.20;1.33;;;;;;;11.69;100.00;99765.44;4806520;29;20065;-45
2021/06/02 00:14:19;;;;;;;2.97;1.08;;;;;;;11.62;100.00;99763.03;4806522;29;20058;-45
2021/06/02 00:50:05;;;;;;;3.75;1.17;;;;;;;11.09;100.00;99745.69;4806774;29;20061;-45
2021/06/02 00:53:09;;;;;;;2.45;1.00;;;;;;;11.05;100.00;99742.34;4805383;29;20050;-45
2021/06/02 00:56:13;;;;;;;3.85;1.77;;;;;;;11.00;100.00;99740.25;4805387;29;20054;-45
2021/06/02 00:59:40;;;;;;;3.15;2.15;;;;;;;10.88;100.00;99735.72;4794706;29;20061;-45
2021/06/02 01:02:50;;;;;;;5.22;2.38;;;;;;;10.76;100.00;99739.56;4804648;29;20053;-45
2021/06/02 01:05:54;;;;;;;2.20;1.85;;;;;;;10.63;100.00;99735.03;4805612;29;20069;-45
2021/06/02 01:09:01;;;;;;;5.03;1.88;;;;;;;10.55;100.00;99733.09;4805345;29;20062;-45
2021/06/02 01:12:05;;;;;;;4.78;1.98;;;;;;;10.47;100.00;99721.59;4794522;29;20077;-45
2021/06/02 01:15:09;;;;;;;4.78;2.55;;;;;;;10.41;100.00;99723.50;4805342;29;20053;-45
2021/06/02 01:18:13;;;;;;;6.60;2.88;;;;;;;10.36;100.00;99729.72;4805640;29;20058;-45
2021/06/02 01:21:23;;;;;;;6.43;1.83;;;;;;;10.30;100.00;99716.94;4794179;29;20057;-45
2021/06/02 01:24:29;;;;;;;1.73;1.55;;;;;;;10.23;100.00;99712.50;4805457;29;20071;-45
2021/06/02 01:27:33;;;;;;;5.57;2.13;;;;;;;10.15;100.00;99711.34;4805209;29;20067;-45
2021/06/02 01:30:37;;;;;;;6.45;2.05;;;;;;;10.04;100.00;99713.88;4794656;29;20054;-45
2021/06/02 01:33:49;;;;;;;8.35;2.38;;;;;;;10.00;100.00;99709.75;4805401;29;20061;-45
2021/06/02 01:37:23;;;;;;;4.90;2.65;;;;;;;9.96;100.00;99709.16;4805125;29;20054;-45
2021/06/02 01:40:50;;;;;;;4.47;1.15;;;;;;;9.96;100.00;99712.72;4805359;29;20136;-45
2021/06/02 01:44:17;;;;;;;4.55;2.20;;;;;;;9.91;100.00;99725.25;4793898;29;20054;-45
2021/06/02 01:47:23;;;;;;;7.03;2.10;;;;;;;9.90;100.00;99720.16;4805329;29;20053;-45
2021/06/02 01:51:04;;;;;;;5.43;1.75;;;;;;;9.90;100.00;99711.81;4804601;29;20444;-45
2021/06/02 01:54:21;;;;;;;4.07;1.67;;;;;;;9.89;100.00;99704.72;4805412;29;20052;-45
2021/06/02 01:57:41;;;;;;;4.68;1.98;;;;;;;9.84;100.00;99702.59;4804733;29;20054;-45
2021/06/02 02:01:16;;;;;;;4.07;2.08;;;;;;;9.82;100.00;99703.06;4806901;29;20054;-45
2021/06/02 02:04:31;;;;;;;3.35;1.92;;;;;;;9.80;100.00;99702.00;4808956;29;20050;-45
2021/06/02 02:07:41;;;;;;;3.58;2.00;;;;;;;9.78;100.00;99698.91;4808533;29;20046;-45
2021/06/02 02:10:51;;;;;;;2.45;1.88;;;;;;;9.72;100.00;99701.56;4808246;29;20050;-45
2021/06/02 02:14:07;;;;;;;2.90;1.88;;;;;;;9.71;100.00;99702.06;4808426;29;20055;-45
2021/06/02 02:17:48;;;;;;;5.18;2.78;;;;;;;9.67;100.00;99693.91;4797040;29;20057;-45
2021/06/02 02:21:06;;;;;;;6.65;2.03;;;;;;;9.64;100.00;99696.84;4808470;29;20058;-45
2021/06/02 02:24:13;;;;;;;8.77;2.63;;;;;;;9.67;100.00;99691.13;4808528;29;20058;-45
2021/06/02 02:27:31;;;;;;;5.60;2.03;;;;;;;9.74;100.00;99698.34;4808538;29;20053;-45
2021/06/02 02:30:46;;;;;;;5.03;1.67;;;;;;;9.75;100.00;99697.06;4808363;29;20057;-45
2021/06/02 02:34:05;;;;;;;5.13;1.98;;;;;;;9.78;100.00;99693.34;4807825;29;20050;-45
2021/06/02 02:37:43;;;;;;;3.00;1.83;;;;;;;9.83;100.00;99701.06;4808093;29;20054;-45
2021/06/02 02:41:08;;;;;;;2.03;1.20;;;;;;;9.82;100.00;99680.81;4807810;29;20098;-45
2021/06/02 02:44:37;;;;;;;4.30;1.40;;;;;;;9.74;100.00;99676.09;4808093;29;20054;-45
2021/06/02 02:48:08;;;;;;;2.58;1.60;;;;;;;9.73;100.00;99680.88;4807840;29;20054;-45
2021/06/02 02:51:52;;;;;;;4.88;1.58;;;;;;;9.83;100.00;99678.81;4807684;29;20512;-45
2021/06/02 02:55:09;;;;;;;4.05;1.70;;;;;;;9.86;100.00;99669.50;4807831;29;20054;-45
2021/06/02 02:58:22;;;;;;;6.72;2.78;;;;;;;9.90;100.00;99684.00;4808003;29;20406;-45
2021/06/02 03:01:37;;;;;;;2.10;1.45;;;;;;;9.89;100.00;99682.47;4807865;29;20057;-45
2021/06/02 03:04:46;;;;;;;4.13;2.53;;;;;;;9.99;100.00;99672.78;4807552;29;20049;-45
2021/06/02 03:07:58;;;;;;;4.60;1.85;;;;;;;10.01;100.00;99670.31;4796770;29;20111;-45
2021/06/02 03:11:23;;;;;;;2.65;1.55;;;;;;;10.12;100.00;99667.78;4795805;29;20050;-45
2021/06/02 03:14:57;;;;;;;4.53;1.98;;;;;;;10.19;100.00;99667.41;4807197;29;20134;-45
2021/06/02 03:18:19;;;;;;;5.93;1.98;;;;;;;10.20;100.00;99649.44;4807459;29;20054;-45
2021/06/02 03:21:41;;;;;;;10.55;1.40;;;;;;;10.16;100.00;99648.09;4807339;29;20046;-45
2021/06/02 03:24:50;;;;;;;;;;;;;;;10.13;100.00;99647.06;4807682;29;20054;-45
2021/06/02 03:28:48;;;;;;;3.85;1.80;;;;;;;10.16;100.00;99645.31;4796535;29;20287;-45
2021/06/02 03:32:19;;;;;;;2.85;1.95;;;;;;;10.14;100.00;99643.03;4732135;29;20887;-45
2021/06/02 03:35:38;;;;;;;3.08;1.42;;;;;;;10.40;100.00;99643.22;4807486;29;20081;-45
2021/06/02 03:39:04;;;;;;;8.77;1.48;;;;;;;10.40;100.00;99634.88;4806860;29;20408;-45
2021/06/02 03:42:07;;;;;;;3.88;1.83;;;;;;;10.43;100.00;99631.91;4807407;29;20062;-45
2021/06/02 03:45:29;;;;;;;17.20;1.65;;;;;;;10.56;100.00;99632.41;4795663;29;20377;-45
2021/06/02 03:49:01;;;;;;;8.07;1.52;;;;;;;10.62;100.00;99626.91;4807068;29;20042;-45
2021/06/02 03:52:07;;;;;;;11.50;3.03;;;;;;;10.73;100.00;99620.75;4806776;29;20062;-45
2021/06/02 03:55:14;;;;;;;3.67;1.63;;;;;;;10.68;100.00;99629.81;4806696;29;20271;-45
2021/06/02 03:58:59;;;;;;;7.68;2.10;;;;;;;10.64;100.00;99638.34;4806966;29;20058;-45
2021/06/02 04:02:09;;;;;;;9.77;2.72;;;;;;;10.60;100.00;99635.75;4806571;29;20058;-45
2021/06/02 04:05:12;;;;;;;4.45;1.58;;;;;;;10.59;100.00;99633.44;4806826;29;20050;-45
2021/06/02 04:08:16;;;;;;;1.17;0.80;;;;;;;10.56;100.00;99635.19;4806517;29;20063;-45
2021/06/02 04:11:34;;;;;;;6.95;1.92;;;;;;;10.49;100.00;99634.78;4806740;29;20054;-45
2021/06/02 04:14:39;;;;;;;10.80;1.52;;;;;;;10.44;100.00;99633.44;4806636;29;20057;-45
2021/06/02 04:17:51;;;;;;;7.40;2.15;;;;;;;10.45;100.00;99640.56;4806007;29;20377;-45
2021/06/02 04:20:56;;;;;;;4.28;1.45;;;;;;;10.48;100.00;99645.16;4806055;29;20054;-45
2021/06/02 04:24:04;;;;;;;3.17;1.92;;;;;;;10.47;100.00;99637.28;4806436;29;20412;-45
2021/06/02 04:27:07;;;;;;;9.73;1.95;;;;;;;10.44;100.00;99644.59;4806090;29;20057;-45
2021/06/02 04:30:14;;;;;;;2.60;1.95;;;;;;;10.43;100.00;99640.28;4806266;29;20057;-45
2021/06/02 04:33:17;;;;;;;2.45;1.35;;;;;;;10.43;100.00;99645.84;4806004;29;20053;-45
2021/06/02 04:36:24;;;;;;;6.45;2.08;;;;;;;10.47;100.00;99645.63;4806273;29;20074;-45
2021/06/02 04:39:29;;;;;;;2.03;1.35;;;;;;;10.45;100.00;99650.91;4805968;29;20058;-45
2021/06/02 04:42:37;;;;;;;4.20;1.48;;;;;;;10.48;100.00;99639.59;4806374;29;20050;-45
2021/06/02 04:45:53;;;;;;;4.22;1.92;;;;;;;10.57;100.00;99642.28;4805733;29;20061;-45
2021/06/02 04:48:57;;;;;;;4.07;1.60;;;;;;;10.58;100.00;99646.59;4794875;29;20062;-45
2021/06/02 04:52:21;;;;;;;3.40;0.98;;;;;;;10.75;100.00;99648.88;4794505;29;20058;-45
2021/06/02 04:55:37;;;;;;;3.05;1.77;;;;;;;10.72;100.00;99642.25;4805761;29;20552;-45
2021/06/02 04:59:23;;;;;;;4.85;1.05;;;;;;;10.68;100.00;99643.72;4805882;29;20058;-45
2021/06/02 05:02:52;;;;;;;3.05;1.88;;;;;;;10.69;100.00;99651.59;4794627;29;20054;-45
2021/06/02 05:06:05;;;;;;;6.68;1.80;;;;;;;10.68;100.00;99648.03;4806205;29;20516;-45
2021/06/02 05:09:46;;;;;;;4.75;1.75;;;;;;;10.77;100.00;99649.16;4805336;29;20049;-45
2021/06/02 05:12:55;;;;;;;4.30;1.45;;;;;;;10.82;100.00;99640.16;4805818;29;20059;-45
2021/06/02 05:16:24;;;;;;;7.82;2.15;;;;;;;10.83;100.00;99648.00;4805505;29;20067;-45
2021/06/02 05:20:16;;;;;;;2.65;1.38;;;;;;;10.91;100.00;99653.97;4805233;29;20054;-45
2021/06/02 05:23:47;;;;;;;;;;;;;;;10.97;100.00;99668.75;4805874;29;20067;-45
2021/06/02 05:27:18;;;;;;;5.53;1.42;;;;;;;11.03;100.00;99656.44;4805294;29;20359;-45
2021/06/02 05:30:55;;;;;;;7.72;2.97;;;;;;;11.11;100.00;99662.41;4805555;29;20512;-45
2021/06/02 05:34:24;;;;;;;10.07;2.20;;;;;;;11.22;100.00;99663.31;4804950;29;20054;-45
2021/06/02 05:37:51;;;;;;;6.03;1.90;;;;;;;11.31;100.00;99665.22;4805509;29;20055;-45
2021/06/02 05:41:01;;;;;;;3.33;1.90;;;;;;;11.37;100.00;99664.03;4805343;29;20070;-45
2021/06/02 05:44:23;;;;;;;9.40;1.55;;;;;;;11.48;100.00;99655.06;4805357;29;20054;-45
2021/06/02 05:47:48;;;;;;;4.30;1.88;;;;;;;11.60;100.00;99665.13;4805360;29;20046;-45
2021/06/02 05:51:30;;;;;;;5.68;1.90;;;;;;;11.67;100.00;99652.81;4805132;29;20061;-45
2021/06/02 05:54:55;;;;;;;14.70;1.83;;;;;;;11.78;100.00;99655.75;4804864;29;20507;-45
2021/06/02 05:57:58;;;;;;;7.20;1.70;;;;;;;11.87;100.00;99650.78;4805195;29;20051;-45
2021/06/02 06:01:36;;;;;;;8.45;2.70;;;;;;;12.10;100.00;99649.78;4805221;29;20130;-45
2021/06/02 06:04:57;;;;;;;4.50;1.60;;;;;;;12.22;100.00;99641.50;4805033;29;20049;-45
2021/06/02 06:08:13;;;;;;;11.88;3.17;;;;;;;12.29;100.00;99639.06;4793691;29;20118;-45
2021/06/02 06:11:38;;;;;;;6.60;2.05;;;;;;;12.40;100.00;99638.41;4804874;29;20408;-45
2021/06/02 06:15:19;;;;;;;6.03;2.53;;;;;;;12.50;100.00;99631.38;4793790;29;20057;-45
2021/06/02 06:18:45;;;;;;;7.93;2.35;;;;;;;12.60;100.00;99632.75;4793767;29;20058;-45
2021/06/02 06:22:07;;;;;;;10.45;2.47;;;;;;;12.70;100.00;99620.13;4805136;29;20062;-45
2021/06/02 06:25:31;;;;;;;8.13;2.55;;;;;;;12.76;100.00;99618.16;4804690;29;20418;-45
2021/06/02 06:29:06;;;;;;;8.75;3.15;;;;;;;12.86;100.00;99616.72;4805085;29;20062;-45
2021/06/02 06:32:09;;;;;;;12.13;2.53;;;;;;;13.02;100.00;99615.28;4804855;29;20069;-45
2021/06/02 06:35:14;;;;;;;5.20;2.45;;;;;;;13.17;100.00;99613.13;4804676;29;20043;-45
2021/06/02 06:38:43;;;;;;;6.95;2.22;;;;;;;13.29;100.00;99612.72;4804538;29;20062;-45
2021/06/02 06:41:48;;;;;;;18.60;3.20;;;;;;;13.40;100.00;99604.38;4782118;29;20392;-45
2021/06/02 06:44:58;;;;;;;11.10;3.17;;;;;;;13.49;100.00;99598.56;4804991;29;20054;-45
2021/06/02 06:48:08;;;;;;;4.93;1.20;;;;;;;13.65;100.00;99597.88;4808062;29;20500;-45
2021/06/02 06:51:14;;;;;;;8.05;2.13;;;;;;;13.68;100.00;99607.31;4807871;29;20066;-45
2021/06/02 06:54:21;;;;;;;11.40;2.78;;;;;;;13.77;100.00;99603.53;4806924;29;20079;-45
2021/06/02 06:57:26;;;;;;;13.85;2.67;;;;;;;13.85;100.00;99604.56;4796587;29;20055;-45
2021/06/02 07:00:32;;;;;;;9.80;2.45;;;;;;;14.00;100.00;99603.09;4807464;29;20067;-45
2021/06/02 07:03:36;;;;;;;7.03;2.28;;;;;;;14.15;100.00;99600.06;4807718;29;20078;-45
2021/06/02 07:06:41;;;;;;;5.88;1.10;;;;;;;14.31;100.00;99611.31;4807720;29;20073;-45
2021/06/02 07:09:45;;;;;;;6.00;1.98;;;;;;;14.52;100.00;99609.06;4807787;29;20053;-45
2021/06/02 07:12:49;;;;;;;11.23;2.75;;;;;;;14.74;100.00;99597.84;4807833;29;20077;-45
2021/06/02 07:15:55;;;;;;;7.65;1.45;;;;;;;15.00;100.00;99595.53;4807873;29;20061;-45
2021/06/02 07:19:01;;;;;;;8.68;2.08;;;;;;;15.18;100.00;99588.63;4807754;29;20527;-45
2021/06/02 07:22:05;;;;;;;8.85;2.85;;;;;;;15.39;100.00;99592.63;4806702;29;20054;-45
2021/06/02 07:25:10;;;;;;;6.05;2.35;;;;;;;15.62;100.00;99582.09;4807566;29;20524;-45
2021/06/02 07:28:15;;;;;;;5.22;1.85;;;;;;;15.88;100.00;99576.88;4807775;29;20050;-45
2021/06/02 07:31:19;;;;;;;17.45;3.03;;;;;;;16.18;100.00;99576.94;4807030;29;20061;-53
2021/06/02 07:34:22;;;;;;;4.68;1.45;;;;;;;16.39;100.00;99581.69;4795906;29;20058;-53
2021/06/02 07:37:25;;;;;;;9.32;1.67;;;;;;;16.61;100.00;99575.88;4807080;29;20062;-53
2021/06/02 07:40:29;;;;;;;7.53;2.05;;;;;;;16.78;100.00;99575.75;4807363;29;20423;-52
2021/06/02 07:43:33;;;;;;;7.00;2.65;;;;;;;16.95;100.00;99581.22;4807031;29;20130;-53
2021/06/02 07:46:36;;;;;;;7.80;1.23;;;;;;;17.06;100.00;99575.50;4796139;29;20058;-53
2021/06/02 07:49:39;;;;;;;4.97;2.17;;;;;;;17.19;100.00;99584.06;4807133;29;20433;-52
2021/06/02 07:52:43;;;;;;;6.28;2.35;;;;;;;17.40;100.00;99587.91;4807070;29;20057;-53
2021/06/02 07:55:46;;;;;;;6.60;1.42;;;;;;;17.49;100.00;99584.75;4806568;29;20445;-53
2021/06/02 07:58:50;;;;;;;7.68;2.33;;;;;;;17.62;100.00;99587.69;4806264;29;20062;-53
2021/06/02 08:01:53;;;;;;;22.85;2.95;;;;;;;17.69;100.00;99594.78;4806842;29;20057;-52
2021/06/02 08:04:57;;;;;;;9.40;1.67;;;;;;;17.69;100.00;99592.72;4806613;29;20069;-53
2021/06/02 08:08:00;;;;;;;10.95;2.53;;;;;;;17.71;100.00;99584.50;4806638;29;20405;-53
2021/06/02 08:11:04;;;;;;;8.82;2.03;;;;;;;17.80;100.00;99592.56;4805782;29;20054;-52
2021/06/02 08:14:07;;;;;;;3.80;1.35;;;;;;;18.01;100.00;99599.22;4806687;29;20050;-52
2021/06/02 08:17:11;;;;;;;6.38;1.25;;;;;;;18.17;100.00;99598.22;4806394;29;20058;-52
2021/06/02 08:20:15;;;;;;;7.95;2.83;;;;;;;18.34;100.00;99595.16;4795159;29;20058;-52
2021/06/02 08:23:19;;;;;;;3.47;0.85;;;;;;;18.59;100.00;99601.47;4795658;29;20071;-52
2021/06/02 08:26:22;;;;;;;8.23;1.65;;;;;;;18.86;100.00;99594.63;4806348;29;20065;-52
2021/06/02 08:29:26;;;;;;;4.47;1.38;;;;;;;19.09;100.00;99601.38;4806314;29;20456;-52
2021/06/02 08:32:29;;;;;;;4.93;1.67;;;;;;;19.30;100.00;99599.44;4806196;29;20069;-52
2021/06/02 08:35:32;;;;;;;2.40;0.85;;;;;;;19.47;100.00;99605.56;4805895;29;20393;-53
2021/06/02 08:38:36;;;;;;;3.63;1.40;;;;;;;19.68;100.00;99612.06;4805950;29;20042;-52
2021/06/02 08:41:40;;;;;;;4.53;1.02;;;;;;;19.90;100.00;99607.28;4806060;29;20603;-53
2021/06/02 08:44:43;;;;;;;2.70;1.52;;;;;;;20.03;100.00;99596.69;4806106;29;20050;-52
2021/06/02 08:47:48;;;;;;;7.13;0.85;;;;;;;20.12;100.00;99601.88;4805936;29;20572;-52
2021/06/02 08:50:52;;;;;;;5.43;2.00;;;;;;;20.22;100.00;99600.16;4805934;29;20127;-53
2021/06/02 08:53:56;;;;;;;3.47;0.77;;;;;;;20.30;100.00;99597.41;4805999;29;20157;-52
2021/06/02 08:57:06;;;;;;;4.97;0.85;;;;;;;20.46;100.00;99596.28;4805848;29;20057;-53
2021/06/02 09:00:13;;;;;;;7.68;1.92;;;;;;;20.56;100.00;99588.81;4805540;29;20062;-53
2021/06/02 09:03:17;;;;;;;13.20;1.48;;;;;;;20.64;100.00;99588.91;4805667;29;20401;-52
2021/06/02 09:06:21;;;;;;;5.97;1.42;;;;;;;20.75;100.00;99591.44;4805986;29;20055;-53
2021/06/02 09:09:26;;;;;;;3.30;1.00;;;;;;;20.85;100.00;99590.44;4805080;29;20393;-52
2021/06/02 09:12:39;;;;;;;4.88;1.40;;;;;;;21.03;100.00;99578.13;4805795;29;20057;-52
2021/06/02 09:15:49;;;;;;;4.57;1.08;;;;;;;21.19;100.00;99592.41;4805379;29;20416;-52
2021/06/02 09:19:04;;;;;;;4.50;0.97;;;;;;;21.29;100.00;99590.59;4805380;29;20053;-53
2021/06/02 09:22:15;;;;;;;6.47;1.02;;;;;;;21.36;100.00;99587.81;4805842;29;20286;-53
2021/06/02 09:25:23;;;;;;;1.60;0.63;;;;;;;21.56;100.00;99583.38;4794257;29;20611;-53
2021/06/02 09:28:45;;;;;;;3.63;1.52;;;;;;;21.72;100.00;99585.00;4805495;29;20057;-52
2021/06/02 09:31:49;;;;;;;5.03;0.60;;;;;;;21.85;100.00;99588.47;4805408;29;20514;-52
2021/06/02 09:35:00;;;;;;;1.58;0.63;;;;;;;22.00;100.00;99592.72;4794254;29;20054;-52
2021/06/02 09:38:05;;;;;;;6.85;1.75;;;;;;;;;;4804864;29;20053;-53
2021/06/02 09:41:13;;;;;;;6.45;0.85;;;;;;;22.16;100.00;99589.34;4804611;29;20054;-53
2021/06/02 09:44:29;;;;;;;3.63;0.57;;;;;;;22.17;100.00;99579.53;4805049;29;20413;-53
2021/06/02 09:47:51;;;;;;;9.43;1.13;;;;;;;22.28;100.00;99586.94;4805441;29;20050;-52
2021/06/02 09:50:54;;;;;;;3.47;0.63;;;;;;;22.30;100.00;99576.56;4805139;29;20081;-52
2021/06/02 09:54:00;;;;;;;2.83;0.77;;;;;;;22.49;100.00;99576.97;4805503;29;20057;-52
2021/06/02 09:57:19;;;;;;;7.22;0.90;;;;;;;22.60;100.00;99575.88;4804135;29;20063;-52
2021/06/02 10:00:22;;;;;;;10.38;1.08;;;;;;;22.66;100.00;99578.50;4793946;29;20054;-50
2021/06/02 10:03:34;;;;;;;5.68;0.95;;;;;;;22.82;100.00;99568.69;4805314;29;20050;-52
2021/06/02 10:06:38;;;;;;;3.13;0.85;;;;;;;22.97;100.00;99568.69;4805355;29;20095;-53
2021/06/02 10:09:43;;;;;;;5.53;0.65;;;;;;;23.02;100.00;99570.59;4805291;29;20067;-52
2021/06/02 10:13:07;;;;;;;2.03;0.50;;;;;;;23.07;100.00;99570.38;4793226;29;20053;-52
2021/06/02 10:16:10;;;;;;;10.57;1.52;;;;;;;23.28;100.00;99573.03;4805004;29;20396;-53
2021/06/02 10:19:14;;;;;;;6.97;0.90;;;;;;;23.35;100.00;99566.59;4804690;29;20043;-53
2021/06/02 10:22:19;;;;;;;7.30;1.48;;;;;;;23.51;100.00;99562.41;4807316;29;20057;-53
2021/06/02 10:25:24;;;;;;;6.97;1.30;;;;;;;23.42;100.00;99556.53;4797043;29;20519;-52
2021/06/02 10:28:30;;;;;;;2.75;0.25;;;;;;;23.25;100.00;99560.72;4808470;29;20050;-53
2021/06/02 10:31:34;;;;;;;5.55;0.85;;;;;;;23.25;100.00;99562.78;4808553;29;20619;-53
2021/06/02 10:34:38;;;;;;;7.40;1.85;;;;;;;23.35;100.00;99552.38;4808556;29;20085;-53
2021/06/02 10:37:44;;;;;;;3.47;1.13;;;;;;;23.34;100.00;99562.25;4808509;29;20073;-52
2021/06/02 10:40:48;;;;;;;2.72;0.70;;;;;;;23.45;100.00;99566.78;4797048;29;20065;-53
2021/06/02 10:43:58;;;;;;;3.95;0.70;;;;;;;23.29;100.00;99557.47;4807883;29;20062;-52
2021/06/02 10:47:03;;;;;;;4.10;0.40;;;;;;;23.14;100.00;99561.13;4808354;29;20495;-52
2021/06/02 10:50:26;;;;;;;6.97;1.35;;;;;;;23.20;100.00;99569.44;4807938;29;20054;-52
2021/06/02 10:53:30;;;;;;;2.90;0.63;;;;;;;23.31;100.00;99563.34;4797049;29;20054;-53
2021/06/02 10:56:35;;;;;;;2.28;0.30;;;;;;;23.61;100.00;99562.53;4807773;29;20046;-53
2021/06/02 10:59:44;;;;;;;6.35;0.65;;;;;;;23.98;100.00;99561.66;4807829;29;20050;-53
2021/06/02 11:02:47;;;;;;;6.15;0.90;;;;;;;24.27;100.00;99559.25;4807525;29;20507;-53
2021/06/02 11:06:06;;;;;;;4.35;1.00;;;;;;;24.66;100.00;99566.97;4807786;29;20053;-53
2021/06/02 11:09:14;;;;;;;4.57;1.10;;;;;;;24.80;100.00;99568.22;4807402;29;20054;-53
2021/06/02 11:12:17;;;;;;;6.53;0.95;;;;;;;24.82;100.00;99562.69;4807654;29;20567;-53
2021/06/02 11:15:30;;;;;;;3.38;0.40;;;;;;;24.86;100.00;99568.75;4807040;29;20053;-53
2021/06/02 11:18:33;;;;;;;1.90;0.45;;;;;;;24.76;100.00;99568.63;4796262;29;20053;-53
2021/06/02 11:22:03;;;;;;;3.17;0.80;;;;;;;24.84;100.00;99565.72;4807540;29;20054;-53
2021/06/02 11:25:21;;;;;;;6.70;0.70;;;;;;;25.07;100.00;99566.28;4807739;29;20381;-53
2021/06/02 11:28:47;;;;;;;1.58;0.30;;;;;;;25.27;100.00;99568.00;4807384;29;20396;-52
2021/06/02 11:31:55;;;;;;;1.42;0.60;;;;;;;25.35;100.00;99560.13;4807057;29;20054;-53
2021/06/02 11:35:06;;;;;;;1.10;0.30;;;;;;;25.37;100.00;99554.59;4807041;29;20094;-53
2021/06/02 11:38:10;;;;;;;2.60;0.57;;;;;;;25.53;100.00;99550.25;4807194;29;20050;-53
2021/06/02 11:41:14;;;;;;;3.13;0.30;;;;;;;25.60;100.00;99553.63;4807344;29;20062;-53
2021/06/02 11:44:18;;;;;;;3.45;0.65;;;;;;;25.64;100.00;99537.59;4806841;29;20057;-54
2021/06/02 11:47:21;;;;;;;5.28;0.45;;;;;;;25.55;100.00;99547.56;4795511;29;20060;-53
2021/06/02 11:50:26;;;;;;;7.53;0.65;;;;;;;25.52;100.00;99548.75;4806762;29;20069;-53
2021/06/02 11:53:41;;;;;;;4.57;0.52;;;;;;;25.42;100.00;99547.16;4806855;29;20054;-53
2021/06/02 11:56:45;;;;;;;2.35;0.90;;;;;;;25.32;100.00;99549.13;4806900;29;20050;-53
2021/06/02 11:59:48;;;;;;;3.38;0.60;;;;;;;25.29;100.00;99548.22;4806583;29;20993;-53
2021/06/02 12:02:53;;;;;;;2.90;0.52;;;;;;;25.06;100.00;99547.66;4806750;29;20053;-53
2021/06/02 12:05:57;;;;;;;2.58;0.60;;;;;;;25.06;100.00;99553.38;4806634;29;20065;-53
2021/06/02 12:09:10;;;;;;;3.97;0.70;;;;;;;25.12;100.00;99542.47;4806607;29;20055;-52
2021/06/02 12:12:14;;;;;;;5.72;0.55;;;;;;;25.21;100.00;99541.81;4806153;29;20069;-54
2021/06/02 12:15:18;;;;;;;4.03;0.65;;;;;;;25.09;100.00;99546.50;4805727;29;20388;-53
2021/06/02 12:18:40;;;;;;;1.08;0.47;;;;;;;24.93;100.00;99553.66;4805748;29;20050;-52
2021/06/02 12:21:45;;;;;;;4.45;0.90;;;;;;;24.68;100.00;99553.66;4805335;29;20053;-53
2021/06/02 12:25:09;;;;;;;5.97;0.50;;;;;;;24.82;100.00;99554.13;4806211;29;20054;-53
2021/06/02 12:28:13;;;;;;;3.97;0.90;;;;;;;24.96;100.00;99561.06;4806412;29;20369;-53
2021/06/02 12:31:37;;;;;;;2.85;0.80;;;;;;;24.94;100.00;99551.59;4806412;29;20046;-53
2021/06/02 12:34:41;;;;;;;5.07;0.85;;;;;;;24.98;100.00;99554.78;4806285;29;20057;-52
2021/06/02 12:37:44;;;;;;;2.67;0.50;;;;;;;25.08;100.00;99547.84;4806088;29;20046;-53
2021/06/02 12:40:50;;;;;;;5.20;0.68;;;;;;;25.20;100.00;99545.25;4806153;29;20071;-53
2021/06/02 12:43:59;;;;;;;10.27;0.70;;;;;;;25.22;100.00;99540.50;4805662;29;20050;-54
2021/06/02 12:47:09;;;;;;;4.03;0.65;;;;;;;25.15;100.00;99538.47;4806016;29;20059;-53
2021/06/02 12:50:32;;;;;;;1.93;0.83;;;;;;;25.19;100.00;99538.81;4805606;29;20058;-54
2021/06/02 12:53:41;;;;;;;4.55;1.00;;;;;;;25.20;100.00;99523.22;4805818;29;20613;-54
2021/06/02 12:56:44;;;;;;;3.33;0.73;;;;;;;25.19;100.00;99527.41;4805633;29;20058;-53
2021/06/02 12:59:47;;;;;;;6.40;0.25;;;;;;;25.34;100.00;99535.78;4805785;29;20065;-53
2021/06/02 13:02:51;;;;;;;1.30;0.22;;;;;;;25.50;100.00;99522.16;4794487;29;20057;-54
2021/06/02 13:05:55;;;;;;;0.80;0.38;;;;;;;25.62;100.00;99516.72;4794936;29;20433;-54
2021/06/02 13:09:07;;;;;;;2.38;0.55;;;;;;;25.73;100.00;99527.59;4805475;29;20046;-53
2021/06/02 13:12:18;;;;;;;3.25;0.52;;;;;;;25.78;100.00;99515.16;4805852;29;20400;-53
2021/06/02 13:15:31;;;;;;;4.57;1.13;;;;;;;25.64;100.00;99514.78;4794261;29;20515;-53
2021/06/02 13:18:35;;;;;;;3.25;0.45;;;;;;;25.69;100.00;99513.00;4805838;29;20054;-54
2021/06/02 13:21:50;;;;;;;1.55;0.10;;;;;;;25.65;100.00;99515.50;4805420;29;20581;-53
2021/06/02 13:25:01;;;;;;;4.90;0.35;;;;;;;25.62;100.00;99514.59;4805547;29;20103;-54
2021/06/02 13:28:07;;;;;;;6.40;0.40;;;;;;;25.72;100.00;99497.56;4805730;29;20050;-53
2021/06/02 13:31:12;;;;;;;12.85;0.63;;;;;;;25.85;100.00;99506.53;4805481;29;20074;-54
2021/06/02 13:34:34;;;;;;;1.75;0.30;;;;;;;25.84;100.00;99507.84;4805807;29;20050;-54
2021/06/02 13:37:43;;;;;;;1.35;0.22;;;;;;;25.91;100.00;99509.09;4794561;29;20049;-54
2021/06/02 13:40:47;;;;;;;1.77;0.45;;;;;;;26.03;100.00;99507.25;4805528;29;20077;-53
2021/06/02 13:43:52;;;;;;;6.45;0.63;;;;;;;26.09;100.00;99490.63;4805576;29;20066;-54
2021/06/02 13:46:56;;;;;;;0.82;0.30;;;;;;;26.07;100.00;99496.16;4794215;29;20073;-53
2021/06/02 13:50:15;;;;;;;4.32;0.47;;;;;;;25.58;100.00;99494.31;4804105;29;20061;-54
2021/06/02 13:53:19;;;;;;;0.88;0.35;;;;;;;25.19;100.00;99498.13;4794090;29;20066;-54
2021/06/02 13:56:22;;;;;;;1.85;0.20;;;;;;;25.30;100.00;99498.41;4806551;29;20122;-53
2021/06/02 13:59:25;;;;;;;2.38;0.38;;;;;;;25.64;100.00;99496.91;4808825;29;20070;-53
2021/06/02 14:02:34;;;;;;;0.40;0.13;;;;;;;25.97;100.00;99492.47;4809065;29;20062;-53
2021/06/02 14:05:38;;;;;;;0.70;0.38;;;;;;;26.17;100.00;99496.97;4808907;29;20540;-53
2021/06/02 14:08:41;;;;;;;1.60;0.17;;;;;;;26.34;100.00;99494.03;4808725;29;20054;-53
2021/06/02 14:11:45;;;;;;;1.00;0.20;;;;;;;26.49;100.00;99493.81;4808833;29;20066;-53
2021/06/02 14:14:49;;;;;;;0.45;0.17;;;;;;;26.19;100.00;99489.31;4808763;29;20061;-53
2021/06/02 14:17:52;;;;;;;0.80;0.30;;;;;;;26.00;100.00;99491.28;4809049;29;20050;-53
2021/06/02 14:20:56;;;;;;;4.53;0.43;;;;;;;25.91;100.00;99486.28;4808564;29;20058;-53
2021/06/02 14:24:02;;;;;;;2.55;0.35;;;;;;;25.98;100.00;99479.72;4808988;29;20057;-53
2021/06/02 14:27:07;;;;;;;1.27;0.20;;;;;;;26.07;100.00;99476.16;4797083;29;20102;-53
2021/06/02 14:30:10;;;;;;;0.63;0.10;;;;;;;26.05;100.00;99482.44;4808236;29;20062;-53
2021/06/02 14:33:14;;;;;;;3.22;0.30;;;;;;;26.10;100.00;99470.03;4808368;29;20600;-52
2021/06/02 14:36:17;;;;;;;7.63;0.63;;;;;;;26.20;100.00;99467.25;4808519;29;20408;-53
2021/06/02 14:39:21;;;;;;;2.00;0.28;;;;;;;26.41;100.00;99469.56;4807912;29;20073;-52
2021/06/02 14:42:24;;;;;;;2.38;0.55;;;;;;;26.64;100.00;99481.41;4808286;29;20058;-52
2021/06/02 14:45:27;;;;;;;1.02;0.10;;;;;;;26.74;100.00;99485.81;4808158;29;20049;-53
2021/06/02 14:48:35;;;;;;;2.33;0.45;;;;;;;26.48;100.00;99478.03;4808064;29;20062;-53
2021/06/02 14:51:39;;;;;;;0.47;0.15;;;;;;;26.32;100.00;99462.47;4807824;29;20417;-53
2021/06/02 14:54:42;;;;;;;4.57;0.60;;;;;;;26.25;100.00;99477.63;4807890;29;20053;-52
2021/06/02 14:57:46;;;;;;;1.98;0.30;;;;;;;26.31;100.00;99475.25;4808297;29;20061;-53
2021/06/02 15:00:50;;;;;;;2.42;0.30;;;;;;;26.39;100.00;99475.88;4807630;29;20049;-53
2021/06/02 15:03:54;;;;;;;2.80;0.20;;;;;;;26.17;100.00;99474.13;4807877;29;20480;-53
2021/06/02 15:06:58;;;;;;;2.03;0.52;;;;;;;26.37;100.00;99470.03;4807564;29;20058;-53
2021/06/02 15:10:03;;;;;;;3.83;0.45;;;;;;;26.54;100.00;99466.31;4807396;29;20054;-53
2021/06/02 15:13:08;;;;;;;1.08;0.30;;;;;;;26.56;100.00;99461.50;4796486;29;20054;-53
2021/06/02 15:16:13;;;;;;;2.95;0.35;;;;;;;26.60;100.00;99458.22;4807955;29;20057;-53
2021/06/02 15:19:19;;;;;;;0.55;0.35;;;;;;;26.37;100.00;99455.75;4807460;29;20504;-53
2021/06/02 15:22:23;;;;;;;2.80;0.43;;;;;;;26.34;100.00;99459.78;4807428;29;20073;-52
2021/06/02 15:25:26;;;;;;;9.75;0.98;;;;;;;26.13;100.00;99457.44;4796163;29;20062;-52